createdAt,value
2018-03-24T00:00:14.884Z,6.25
2018-03-24T00:01:14.861Z,6.34
2018-03-24T00:02:14.890Z,6.28
2018-03-24T00:03:14.824Z,6.22
2018-03-24T00:04:14.807Z,6.28
2018-03-24T00:05:14.813Z,6.28
2018-03-24T00:06:14.843Z,6.33
2018-03-24T00:07:14.761Z,6.28
2018-03-24T00:08:14.757Z,6.36
2018-03-24T00:09:14.744Z,6.40
2018-03-24T00:10:14.721Z,6.40
2018-03-24T00:11:14.702Z,6.41
2018-03-24T00:12:14.697Z,6.40
2018-03-24T00:13:14.653Z,6.43
2018-03-24T00:14:14.670Z,6.33
2018-03-24T00:15:14.653Z,6.37
2018-03-24T00:16:14.639Z,6.38
2018-03-24T00:17:14.625Z,6.38
2018-03-24T00:18:14.609Z,6.36
2018-03-24T00:19:14.558Z,6.34
2018-03-24T00:20:14.537Z,6.38
2018-03-24T00:21:14.552Z,6.44
2018-03-24T00:22:14.521Z,6.41
2018-03-24T00:23:14.529Z,6.44
2018-03-24T00:24:14.495Z,6.41
2018-03-24T00:25:14.487Z,6.44
2018-03-24T00:26:14.465Z,6.40
2018-03-24T00:27:14.427Z,6.37
2018-03-24T00:28:14.500Z,6.37
2018-03-24T00:29:14.397Z,6.46
2018-03-24T00:30:14.396Z,6.37
2018-03-24T00:31:14.383Z,6.49
2018-03-24T00:32:14.365Z,6.36
2018-03-24T00:33:14.353Z,6.40
2018-03-24T00:34:14.328Z,6.40
2018-03-24T00:35:14.364Z,6.55
2018-03-24T00:36:14.295Z,6.38
2018-03-24T00:37:14.276Z,6.52
2018-03-24T00:38:14.285Z,6.43
2018-03-24T00:39:14.230Z,6.51
2018-03-24T00:40:14.214Z,6.48
2018-03-24T00:41:14.259Z,6.56
2018-03-24T00:42:14.192Z,6.48
2018-03-24T00:43:14.180Z,6.58
2018-03-24T00:44:14.172Z,6.46
2018-03-24T00:45:14.142Z,6.58
2018-03-24T00:46:14.127Z,6.52
2018-03-24T00:47:14.110Z,6.46
2018-03-24T00:48:14.090Z,6.48
2018-03-24T00:49:14.083Z,6.54
2018-03-24T00:50:14.059Z,6.52
2018-03-24T00:51:14.043Z,6.51
2018-03-24T00:52:14.112Z,6.40
2018-03-24T00:53:14.042Z,6.43
2018-03-24T00:54:14.012Z,6.43
2018-03-24T00:55:13.978Z,6.41
2018-03-24T00:56:14.018Z,6.40
2018-03-24T00:57:13.964Z,6.36
2018-03-24T00:58:13.982Z,6.41
2018-03-24T00:59:13.914Z,6.46
2018-03-24T01:00:13.895Z,6.44
2018-03-24T01:01:13.873Z,6.36
2018-03-24T01:02:13.889Z,6.40
2018-03-24T01:03:13.910Z,6.43
2018-03-24T01:04:13.851Z,6.37
2018-03-24T01:05:13.826Z,6.36
2018-03-24T01:06:13.813Z,6.40
2018-03-24T01:07:13.795Z,6.46
2018-03-24T01:08:13.789Z,6.38
2018-03-24T01:09:13.767Z,6.21
2018-03-24T01:10:13.740Z,6.25
2018-03-24T01:11:13.742Z,6.33
2018-03-24T01:12:13.747Z,6.41
2018-03-24T01:13:13.695Z,6.22
2018-03-24T01:14:13.675Z,6.33
2018-03-24T01:15:13.691Z,6.31
2018-03-24T01:16:13.647Z,6.34
2018-03-24T01:17:13.653Z,6.25
2018-03-24T01:18:13.611Z,6.21
2018-03-24T01:19:13.629Z,6.22
2018-03-24T01:20:13.583Z,6.15
2018-03-24T01:21:13.557Z,6.08
2018-03-24T01:22:13.566Z,6.11
2018-03-24T01:23:13.531Z,6.12
2018-03-24T01:24:13.531Z,6.06
2018-03-24T01:25:13.498Z,6.12
2018-03-24T01:26:13.496Z,6.03
2018-03-24T01:27:13.473Z,6.01
2018-03-24T01:28:13.470Z,6.03
2018-03-24T01:29:13.434Z,6.04
2018-03-24T01:30:13.444Z,6.00
2018-03-24T01:31:13.596Z,6.04
2018-03-24T01:32:13.384Z,5.96
2018-03-24T01:33:13.354Z,6.00
2018-03-24T01:34:13.374Z,5.96
2018-03-24T01:35:13.316Z,5.93
2018-03-24T01:36:13.327Z,6.01
2018-03-24T01:37:13.341Z,6.03
2018-03-24T01:38:13.276Z,6.00
2018-03-24T01:39:13.261Z,5.93
2018-03-24T01:40:13.240Z,5.94
2018-03-24T01:41:13.237Z,5.89
2018-03-24T01:42:13.263Z,5.91
2018-03-24T01:43:13.201Z,5.94
2018-03-24T01:44:13.179Z,5.81
2018-03-24T01:45:13.152Z,5.79
2018-03-24T01:46:13.143Z,5.76
2018-03-24T01:47:13.151Z,5.82
2018-03-24T01:48:13.118Z,5.67
2018-03-24T01:49:13.170Z,5.65
2018-03-24T01:50:13.096Z,5.79
2018-03-24T01:51:13.079Z,5.78
2018-03-24T01:52:13.045Z,5.74
2018-03-24T01:53:13.028Z,5.79
2018-03-24T01:54:13.016Z,5.79
2018-03-24T01:55:13.014Z,5.79
2018-03-24T01:56:12.983Z,5.81
2018-03-24T01:57:12.954Z,5.75
2018-03-24T01:58:12.949Z,5.68
2018-03-24T01:59:12.965Z,5.72
2018-03-24T02:00:12.910Z,5.75
2018-03-24T02:01:12.927Z,5.71
2018-03-24T02:02:12.903Z,5.74
2018-03-24T02:03:12.862Z,5.71
2018-03-24T02:04:12.871Z,5.75
2018-03-24T02:05:12.820Z,5.76
2018-03-24T02:06:12.800Z,5.72
2018-03-24T02:07:12.854Z,5.65
2018-03-24T02:08:12.779Z,5.67
2018-03-24T02:09:12.750Z,5.68
2018-03-24T02:10:12.773Z,5.56
2018-03-24T02:11:12.718Z,5.61
2018-03-24T02:12:12.695Z,5.61
2018-03-24T02:13:12.690Z,5.68
2018-03-24T02:14:12.666Z,5.65
2018-03-24T02:15:12.654Z,5.65
2018-03-24T02:16:12.638Z,5.64
2018-03-24T02:17:12.615Z,5.61
2018-03-24T02:18:12.627Z,5.58
2018-03-24T02:19:12.620Z,5.60
2018-03-24T02:20:12.557Z,5.61
2018-03-24T02:21:12.545Z,5.58
2018-03-24T02:22:12.552Z,5.56
2018-03-24T02:23:12.523Z,5.51
2018-03-24T02:24:12.530Z,5.56
2018-03-24T02:25:12.475Z,5.51
2018-03-24T02:26:12.470Z,5.48
2018-03-24T02:27:12.463Z,5.54
2018-03-24T02:28:12.578Z,5.53
2018-03-24T02:29:12.406Z,5.51
2018-03-24T02:30:12.412Z,5.45
2018-03-24T02:31:12.389Z,5.42
2018-03-24T02:32:12.357Z,5.48
2018-03-24T02:33:12.367Z,5.43
2018-03-24T02:34:12.576Z,5.45
2018-03-24T02:35:12.351Z,5.38
2018-03-24T02:36:12.308Z,5.38
2018-03-24T02:37:12.277Z,5.33
2018-03-24T02:38:12.288Z,5.43
2018-03-24T02:39:12.260Z,5.43
2018-03-24T02:40:12.233Z,5.40
2018-03-24T02:41:12.218Z,5.36
2018-03-24T02:42:12.223Z,5.46
2018-03-24T02:43:12.181Z,5.27
2018-03-24T02:44:12.156Z,5.36
2018-03-24T02:45:12.180Z,5.35
2018-03-24T02:46:12.118Z,5.30
2018-03-24T02:47:12.111Z,5.22
2018-03-24T02:48:12.098Z,5.27
2018-03-24T02:49:12.088Z,5.25
2018-03-24T02:50:12.087Z,5.22
2018-03-24T02:51:12.069Z,5.20
2018-03-24T02:52:12.009Z,5.07
2018-03-24T02:53:12.017Z,5.13
2018-03-24T02:54:12.000Z,5.20
2018-03-24T02:55:11.994Z,5.13
2018-03-24T02:56:11.970Z,5.18
2018-03-24T02:57:11.923Z,5.20
2018-03-24T02:58:11.918Z,5.15
2018-03-24T02:59:11.945Z,5.15
2018-03-24T03:00:11.882Z,5.04
2018-03-24T03:01:11.875Z,5.07
2018-03-24T03:02:11.850Z,5.02
2018-03-24T03:03:11.831Z,5.02
2018-03-24T03:04:11.810Z,5.02
2018-03-24T03:05:11.808Z,5.07
2018-03-24T03:06:11.778Z,5.03
2018-03-24T03:07:11.756Z,4.97
2018-03-24T03:08:11.747Z,5.04
2018-03-24T03:09:11.726Z,5.02
2018-03-24T03:10:11.766Z,4.99
2018-03-24T03:11:11.685Z,5.06
2018-03-24T03:12:11.677Z,5.06
2018-03-24T03:13:11.685Z,5.06
2018-03-24T03:14:11.687Z,5.06
2018-03-24T03:15:11.629Z,5.02
2018-03-24T03:16:11.623Z,5.09
2018-03-24T03:17:11.599Z,5.04
2018-03-24T03:18:11.591Z,5.02
2018-03-24T03:19:11.546Z,4.99
2018-03-24T03:20:11.541Z,5.00
2018-03-24T03:21:11.589Z,5.06
2018-03-24T03:22:11.510Z,5.06
2018-03-24T03:23:11.491Z,4.97
2018-03-24T03:24:11.475Z,5.09
2018-03-24T03:25:11.460Z,5.03
2018-03-24T03:26:11.431Z,5.00
2018-03-24T03:27:11.443Z,5.09
2018-03-24T03:28:11.415Z,5.04
2018-03-24T03:29:11.402Z,5.03
2018-03-24T03:30:11.389Z,5.06
2018-03-24T03:31:11.370Z,5.13
2018-03-24T03:32:11.369Z,5.06
2018-03-24T03:33:11.305Z,5.03
2018-03-24T03:34:11.308Z,5.03
2018-03-24T03:35:11.294Z,5.10
2018-03-24T03:36:11.583Z,5.04
2018-03-24T03:37:11.243Z,5.12
2018-03-24T03:38:11.238Z,5.18
2018-03-24T03:39:11.243Z,5.13
2018-03-24T03:40:11.211Z,5.12
2018-03-24T03:41:11.173Z,5.12
2018-03-24T03:42:11.179Z,5.12
2018-03-24T03:43:11.143Z,5.10
2018-03-24T03:44:11.136Z,5.18
2018-03-24T03:45:11.117Z,5.17
2018-03-24T03:46:11.146Z,5.13
2018-03-24T03:47:11.067Z,5.20
2018-03-24T03:48:11.068Z,5.15
2018-03-24T03:49:11.027Z,5.15
2018-03-24T03:50:11.023Z,5.15
2018-03-24T03:51:10.994Z,5.24
2018-03-24T03:52:10.997Z,5.22
2018-03-24T03:53:10.999Z,5.27
2018-03-24T03:54:10.962Z,5.21
2018-03-24T03:55:10.927Z,5.25
2018-03-24T03:56:10.918Z,5.27
2018-03-24T03:57:11.273Z,5.27
2018-03-24T03:58:10.898Z,5.24
2018-03-24T03:59:10.890Z,5.20
2018-03-24T04:00:10.874Z,5.21
2018-03-24T04:01:10.822Z,5.35
2018-03-24T04:02:10.821Z,5.25
2018-03-24T04:03:10.844Z,5.21
2018-03-24T04:04:10.789Z,5.24
2018-03-24T04:05:10.774Z,5.22
2018-03-24T04:06:10.736Z,5.24
2018-03-24T04:07:10.735Z,5.30
2018-03-24T04:08:10.722Z,5.22
2018-03-24T04:09:10.701Z,5.21
2018-03-24T04:10:10.682Z,5.21
2018-03-24T04:11:10.668Z,5.27
2018-03-24T04:12:10.635Z,5.21
2018-03-24T04:13:10.633Z,5.21
2018-03-24T04:14:10.642Z,5.27
2018-03-24T04:15:10.912Z,5.22
2018-03-24T04:16:10.595Z,5.27
2018-03-24T04:17:10.552Z,5.22
2018-03-24T04:18:10.552Z,5.22
2018-03-24T04:19:10.545Z,5.17
2018-03-24T04:20:10.511Z,5.22
2018-03-24T04:21:10.493Z,5.17
2018-03-24T04:22:10.475Z,5.24
2018-03-24T04:23:10.446Z,5.18
2018-03-24T04:24:10.448Z,5.15
2018-03-24T04:25:10.421Z,5.10
2018-03-24T04:26:10.410Z,5.20
2018-03-24T04:27:10.382Z,5.15
2018-03-24T04:28:10.389Z,5.15
2018-03-24T04:29:10.423Z,5.10
2018-03-24T04:30:10.328Z,5.18
2018-03-24T04:31:10.347Z,5.10
2018-03-24T04:32:10.301Z,5.10
2018-03-24T04:33:10.300Z,5.15
2018-03-24T04:34:10.260Z,5.13
2018-03-24T04:35:10.322Z,5.12
2018-03-24T04:36:10.249Z,5.13
2018-03-24T04:37:10.232Z,5.10
2018-03-24T04:38:10.195Z,5.09
2018-03-24T04:39:10.176Z,5.00
2018-03-24T04:40:10.169Z,5.00
2018-03-24T04:41:10.198Z,5.04
2018-03-24T04:42:10.154Z,5.03
2018-03-24T04:43:10.135Z,5.02
2018-03-24T04:44:10.116Z,5.02
2018-03-24T04:45:10.094Z,5.09
2018-03-24T04:46:10.113Z,5.10
2018-03-24T04:47:10.041Z,5.06
2018-03-24T04:48:10.050Z,5.06
2018-03-24T04:49:10.038Z,5.03
2018-03-24T04:50:10.004Z,5.04
2018-03-24T04:51:09.975Z,5.07
2018-03-24T04:52:09.956Z,5.03
2018-03-24T04:53:09.962Z,5.06
2018-03-24T04:54:09.973Z,5.03
2018-03-24T04:55:09.946Z,5.03
2018-03-24T04:56:09.897Z,5.06
2018-03-24T04:57:09.889Z,5.06
2018-03-24T04:58:09.864Z,5.00
2018-03-24T04:59:09.905Z,5.04
2018-03-24T05:00:09.868Z,4.97
2018-03-24T05:01:09.798Z,5.03
2018-03-24T05:02:09.837Z,5.04
2018-03-24T05:03:09.775Z,5.06
2018-03-24T05:04:09.751Z,5.03
2018-03-24T05:05:09.807Z,5.07
2018-03-24T05:06:09.711Z,5.04
2018-03-24T05:07:09.712Z,5.04
2018-03-24T05:08:09.701Z,5.07
2018-03-24T05:09:09.660Z,5.00
2018-03-24T05:10:09.644Z,5.00
2018-03-24T05:11:09.665Z,4.92
2018-03-24T05:12:09.614Z,4.97
2018-03-24T05:13:09.602Z,4.94
2018-03-24T05:14:09.589Z,5.00
2018-03-24T05:15:09.583Z,4.99
2018-03-24T05:16:09.585Z,4.89
2018-03-24T05:17:09.520Z,4.91
2018-03-24T05:18:09.525Z,4.92
2018-03-24T05:19:09.497Z,4.94
2018-03-24T05:20:09.482Z,4.94
2018-03-24T05:21:09.470Z,4.97
2018-03-24T05:22:09.494Z,4.92
2018-03-24T05:23:09.421Z,4.99
2018-03-24T05:24:09.422Z,4.99
2018-03-24T05:25:09.382Z,4.96
2018-03-24T05:26:09.379Z,4.96
2018-03-24T05:27:09.398Z,4.96
2018-03-24T05:28:09.331Z,4.91
2018-03-24T05:29:09.339Z,4.97
2018-03-24T05:30:09.288Z,4.92
2018-03-24T05:31:09.307Z,4.99
2018-03-24T05:32:09.351Z,5.02
2018-03-24T05:33:09.270Z,4.97
2018-03-24T05:34:09.234Z,5.03
2018-03-24T05:35:09.218Z,5.00
2018-03-24T05:36:09.208Z,5.07
2018-03-24T05:37:09.192Z,4.96
2018-03-24T05:38:09.180Z,4.99
2018-03-24T05:39:09.161Z,4.99
2018-03-24T05:40:09.121Z,5.03
2018-03-24T05:41:09.103Z,4.96
2018-03-24T05:42:09.105Z,5.02
2018-03-24T05:43:09.154Z,4.96
2018-03-24T05:44:09.051Z,4.96
2018-03-24T05:45:09.052Z,4.99
2018-03-24T05:46:09.029Z,5.00
2018-03-24T05:47:09.000Z,4.85
2018-03-24T05:48:08.985Z,4.92
2018-03-24T05:49:09.132Z,4.92
2018-03-24T05:50:08.963Z,4.91
2018-03-24T05:51:08.944Z,4.94
2018-03-24T05:52:08.926Z,4.91
2018-03-24T05:53:08.903Z,4.91
2018-03-24T05:54:08.914Z,4.88
2018-03-24T05:55:08.873Z,4.96
2018-03-24T05:56:08.841Z,4.94
2018-03-24T05:57:08.852Z,4.94
2018-03-24T05:58:08.825Z,4.96
2018-03-24T05:59:09.093Z,5.00
2018-03-24T06:00:08.790Z,4.97
2018-03-24T06:01:08.793Z,4.96
2018-03-24T06:02:08.735Z,4.94
2018-03-24T06:03:08.748Z,4.86
2018-03-24T06:04:08.731Z,4.92
2018-03-24T06:05:08.726Z,4.94
2018-03-24T06:06:08.696Z,4.99
2018-03-24T06:07:08.661Z,4.88
2018-03-24T06:08:08.636Z,4.89
2018-03-24T06:09:08.633Z,4.96
2018-03-24T06:10:08.635Z,4.91
2018-03-24T06:11:08.592Z,4.99
2018-03-24T06:12:08.586Z,4.89
2018-03-24T06:13:08.571Z,4.94
2018-03-24T06:14:08.538Z,4.99
2018-03-24T06:15:08.571Z,4.92
2018-03-24T06:16:08.502Z,4.99
2018-03-24T06:17:08.475Z,4.88
2018-03-24T06:18:08.464Z,4.97
2018-03-24T06:19:08.454Z,4.92
2018-03-24T06:20:08.426Z,4.86
2018-03-24T06:21:08.481Z,4.89
2018-03-24T06:22:08.426Z,4.99
2018-03-24T06:23:08.399Z,5.00
2018-03-24T06:24:08.371Z,4.99
2018-03-24T06:25:08.350Z,5.03
2018-03-24T06:26:08.330Z,5.00
2018-03-24T06:27:08.326Z,4.97
2018-03-24T06:28:08.297Z,4.97
2018-03-24T06:29:08.288Z,4.99
2018-03-24T06:30:08.259Z,4.91
2018-03-24T06:31:08.234Z,5.04
2018-03-24T06:32:08.245Z,5.06
2018-03-24T06:33:08.220Z,5.09
2018-03-24T06:34:08.188Z,5.02
2018-03-24T06:35:08.186Z,5.02
2018-03-24T06:36:08.211Z,5.02
2018-03-24T06:37:08.134Z,5.13
2018-03-24T06:38:08.170Z,5.04
2018-03-24T06:39:08.185Z,5.13
2018-03-24T06:40:08.098Z,5.10
2018-03-24T06:41:08.075Z,5.15
2018-03-24T06:42:08.063Z,5.20
2018-03-24T06:43:08.033Z,5.17
2018-03-24T06:44:08.026Z,5.12
2018-03-24T06:45:08.030Z,5.15
2018-03-24T06:46:08.000Z,5.24
2018-03-24T06:47:07.982Z,5.28
2018-03-24T06:48:07.949Z,5.24
2018-03-24T06:49:07.933Z,5.22
2018-03-24T06:50:07.921Z,5.27
2018-03-24T06:51:07.906Z,5.22
2018-03-24T06:52:07.885Z,5.17
2018-03-24T06:53:07.884Z,5.20
2018-03-24T06:54:07.851Z,5.22
2018-03-24T06:55:07.827Z,5.40
2018-03-24T06:56:07.822Z,5.33
2018-03-24T06:57:07.841Z,5.38
2018-03-24T06:58:07.782Z,5.42
2018-03-24T06:59:07.765Z,5.43
2018-03-24T07:00:07.788Z,5.39
2018-03-24T07:01:07.740Z,5.42
2018-03-24T07:02:07.726Z,5.45
2018-03-24T07:03:07.698Z,5.40
2018-03-24T07:04:07.691Z,5.38
2018-03-24T07:05:07.687Z,5.38
2018-03-24T07:06:07.650Z,5.42
2018-03-24T07:07:07.619Z,5.40
2018-03-24T07:08:07.622Z,5.43
2018-03-24T07:09:07.623Z,5.45
2018-03-24T07:10:07.582Z,5.45
2018-03-24T07:11:07.560Z,5.51
2018-03-24T07:12:07.545Z,5.53
2018-03-24T07:13:07.532Z,5.54
2018-03-24T07:14:07.536Z,5.53
2018-03-24T07:15:07.492Z,5.57
2018-03-24T07:16:07.478Z,5.49
2018-03-24T07:17:07.470Z,5.54
2018-03-24T07:18:07.436Z,5.56
2018-03-24T07:19:07.509Z,5.64
2018-03-24T07:20:07.412Z,5.60
2018-03-24T07:21:07.403Z,5.64
2018-03-24T07:22:07.370Z,5.68
2018-03-24T07:23:07.366Z,5.60
2018-03-24T07:24:07.380Z,5.71
2018-03-24T07:25:07.329Z,5.76
2018-03-24T07:26:07.325Z,5.72
2018-03-24T07:27:07.285Z,5.81
2018-03-24T07:28:07.280Z,5.81
2018-03-24T07:29:07.304Z,5.68
2018-03-24T07:30:07.237Z,5.78
2018-03-24T07:31:07.245Z,5.78
2018-03-24T07:32:07.209Z,5.82
2018-03-24T07:33:07.204Z,5.83
2018-03-24T07:34:07.225Z,5.81
2018-03-24T07:35:07.553Z,5.96
2018-03-24T07:36:07.163Z,5.94
2018-03-24T07:37:07.143Z,5.96
2018-03-24T07:38:07.109Z,5.97
2018-03-24T07:39:07.122Z,5.96
2018-03-24T07:40:07.081Z,5.97
2018-03-24T07:41:07.099Z,6.04
2018-03-24T07:42:07.046Z,6.06
2018-03-24T07:43:07.034Z,6.04
2018-03-24T07:44:07.023Z,6.01
2018-03-24T07:45:07.013Z,6.17
2018-03-24T07:46:06.986Z,6.11
2018-03-24T07:47:06.968Z,6.11
2018-03-24T07:48:06.945Z,6.15
2018-03-24T07:49:06.956Z,6.19
2018-03-24T07:50:06.914Z,6.19
2018-03-24T07:51:06.934Z,6.19
2018-03-24T07:52:06.944Z,6.25
2018-03-24T07:53:06.868Z,6.27
2018-03-24T07:54:06.951Z,6.38
2018-03-24T07:55:06.852Z,6.40
2018-03-24T07:56:06.834Z,6.43
2018-03-24T07:57:06.797Z,6.38
2018-03-24T07:58:06.826Z,6.40
2018-03-24T07:59:06.770Z,6.44
2018-03-24T08:00:06.768Z,6.46
2018-03-24T08:01:06.769Z,6.55
2018-03-24T08:02:06.730Z,6.62
2018-03-24T08:03:06.756Z,6.62
2018-03-24T08:04:06.701Z,6.66
2018-03-24T08:05:06.685Z,6.71
2018-03-24T08:06:06.671Z,6.66
2018-03-24T08:07:06.654Z,6.77
2018-03-24T08:08:06.637Z,6.81
2018-03-24T08:09:06.653Z,6.85
2018-03-24T08:10:06.670Z,6.88
2018-03-24T08:11:06.609Z,6.91
2018-03-24T08:12:06.579Z,6.95
2018-03-24T08:13:06.545Z,6.87
2018-03-24T08:14:06.534Z,6.91
2018-03-24T08:15:06.530Z,7.06
2018-03-24T08:16:06.521Z,6.99
2018-03-24T08:17:06.501Z,6.99
2018-03-24T08:18:06.479Z,7.05
2018-03-24T08:19:06.486Z,7.06
2018-03-24T08:20:06.464Z,7.12
2018-03-24T08:21:06.468Z,7.16
2018-03-24T08:22:06.452Z,7.13
2018-03-24T08:23:06.390Z,7.17
2018-03-24T08:24:06.378Z,7.25
2018-03-24T08:25:06.373Z,7.24
2018-03-24T08:26:06.379Z,7.23
2018-03-24T08:27:06.343Z,7.34
2018-03-24T08:28:06.347Z,7.32
2018-03-24T08:29:06.310Z,7.34
2018-03-24T08:30:06.642Z,7.37
2018-03-24T08:31:06.284Z,7.37
2018-03-24T08:32:06.270Z,7.42
2018-03-24T08:39:16.892Z,7.64
2018-03-24T08:47:56.226Z,7.93
2018-03-24T08:48:51.513Z,7.95
2018-03-24T08:50:01.765Z,8.02
2018-03-24T08:53:21.865Z,8.10
2018-03-24T08:54:23.490Z,8.04
2018-03-24T08:55:21.990Z,7.93
2018-03-24T08:56:21.778Z,8.04
2018-03-24T08:57:22.350Z,8.07
2018-03-24T08:58:21.713Z,8.07
2018-03-24T08:59:21.811Z,8.04
2018-03-24T09:00:21.712Z,8.04
2018-03-24T09:01:22.344Z,8.10
2018-03-24T09:02:22.429Z,8.11
2018-03-24T09:03:21.705Z,8.07
2018-03-24T09:04:21.628Z,8.00
2018-03-24T09:05:22.327Z,8.01
2018-03-24T09:06:21.715Z,8.02
2018-03-24T09:07:21.629Z,8.02
2018-03-24T09:08:21.598Z,8.01
2018-03-24T09:09:21.582Z,7.97
2018-03-24T09:10:21.587Z,8.08
2018-03-24T09:11:21.575Z,8.00
2018-03-24T09:12:22.334Z,8.01
2018-03-24T09:13:21.934Z,8.08
2018-03-24T09:14:21.559Z,8.10
2018-03-24T09:15:21.474Z,8.15
2018-03-24T09:16:21.505Z,8.15
2018-03-24T09:17:21.479Z,8.19
2018-03-24T09:18:21.440Z,8.30
2018-03-24T09:19:21.485Z,8.43
2018-03-24T09:24:47.738Z,8.65
2018-03-24T09:25:47.615Z,8.70
2018-03-24T09:26:48.042Z,8.76
2018-03-24T09:27:47.577Z,8.80
2018-03-24T09:28:47.488Z,8.77
2018-03-24T09:29:47.482Z,8.86
2018-03-24T09:30:47.466Z,8.77
2018-03-24T09:31:47.474Z,8.79
2018-03-24T09:32:48.152Z,8.76
2018-03-24T09:33:47.638Z,8.92
2018-03-24T09:34:47.416Z,8.96
2018-03-24T09:35:47.382Z,9.02
2018-03-24T09:36:47.377Z,9.08
2018-03-24T09:37:47.370Z,9.08
2018-03-24T09:38:47.346Z,9.08
2018-03-24T09:39:47.345Z,9.17
2018-03-24T09:40:47.331Z,9.17
2018-03-24T09:41:47.309Z,9.17
2018-03-24T09:42:47.315Z,9.28
2018-03-24T09:43:47.281Z,9.23
2018-03-24T09:44:47.336Z,9.36
2018-03-24T09:45:47.264Z,9.32
2018-03-24T09:46:47.950Z,9.33
2018-03-24T09:47:47.247Z,9.51
2018-03-24T09:48:58.125Z,9.47
2018-03-24T09:49:59.773Z,9.48
2018-03-24T09:50:47.229Z,9.53
2018-03-24T09:51:47.201Z,9.58
2018-03-24T09:52:47.228Z,9.54
2018-03-24T09:53:47.337Z,9.57
2018-03-24T09:54:47.180Z,9.68
2018-03-24T09:55:47.207Z,9.65
2018-03-24T09:56:47.144Z,9.72
2018-03-24T09:57:47.111Z,9.75
2018-03-24T09:58:47.106Z,9.76
2018-03-24T09:59:47.100Z,9.84
2018-03-24T10:00:47.092Z,9.89
2018-03-24T10:01:47.108Z,9.93
2018-03-24T10:02:47.074Z,10.02
2018-03-24T10:03:47.038Z,10.11
2018-03-24T10:04:47.053Z,9.97
2018-03-24T10:05:47.053Z,10.04
2018-03-24T10:06:47.065Z,10.01
2018-03-24T10:07:46.993Z,10.01
2018-03-24T10:08:47.018Z,10.12
2018-03-24T10:09:46.969Z,10.17
2018-03-24T10:10:46.959Z,10.15
2018-03-24T10:11:46.952Z,10.22
2018-03-24T10:12:46.942Z,10.27
2018-03-24T10:13:46.975Z,10.29
2018-03-24T10:14:46.924Z,10.22
2018-03-24T10:15:46.899Z,10.23
2018-03-24T10:16:46.970Z,10.30
2018-03-24T10:17:46.904Z,10.26
2018-03-24T10:18:46.896Z,10.32
2018-03-24T10:19:46.860Z,10.33
2018-03-24T10:20:46.847Z,10.38
2018-03-24T10:21:46.852Z,10.40
2018-03-24T10:22:46.839Z,10.42
2018-03-24T10:23:46.821Z,10.40
2018-03-24T10:24:46.818Z,10.52
2018-03-24T10:25:46.795Z,10.48
2018-03-24T10:26:46.786Z,10.56
2018-03-24T10:27:46.792Z,10.55
2018-03-24T10:28:46.766Z,10.52
2018-03-24T10:29:46.764Z,10.56
2018-03-24T10:30:46.738Z,10.56
2018-03-24T10:31:46.742Z,10.64
2018-03-24T10:32:47.090Z,10.52
2018-03-24T10:33:46.737Z,10.59
2018-03-24T10:34:46.713Z,10.56
2018-03-24T10:35:46.693Z,10.71
2018-03-24T10:36:46.678Z,10.67
2018-03-24T10:37:46.683Z,10.66
2018-03-24T10:38:46.687Z,10.81
2018-03-24T10:39:46.648Z,10.81
2018-03-24T10:40:46.658Z,10.88
2018-03-24T10:41:46.639Z,10.92
2018-03-24T10:42:46.630Z,10.96
2018-03-24T10:43:46.636Z,11.07
2018-03-24T10:44:46.631Z,11.14
2018-03-24T10:45:46.615Z,11.19
2018-03-24T10:46:46.593Z,11.33
2018-03-24T10:47:46.572Z,11.36
2018-03-24T10:48:46.576Z,11.44
2018-03-24T10:49:46.617Z,11.39
2018-03-24T10:50:46.558Z,11.47
2018-03-24T10:51:46.567Z,11.55
2018-03-24T10:52:46.529Z,11.62
2018-03-24T10:53:46.519Z,11.62
2018-03-24T10:54:46.506Z,11.67
2018-03-24T10:55:46.538Z,11.70
2018-03-24T10:56:46.507Z,11.79
2018-03-24T10:57:46.484Z,11.85
2018-03-24T10:58:46.487Z,11.94
2018-03-24T10:59:46.498Z,12.05
2018-03-24T11:00:46.472Z,12.14
2018-03-24T11:01:46.498Z,12.17
2018-03-24T11:02:46.465Z,12.21
2018-03-24T11:03:46.468Z,12.31
2018-03-24T11:04:46.429Z,12.35
2018-03-24T11:05:46.427Z,12.62
2018-03-24T11:06:46.422Z,12.57
2018-03-24T11:07:46.421Z,12.71
2018-03-24T11:08:46.422Z,12.79
2018-03-24T11:09:46.429Z,12.79
2018-03-24T11:10:46.386Z,13.01
2018-03-24T11:11:46.738Z,13.01
2018-03-24T11:12:46.389Z,13.03
2018-03-24T11:13:46.384Z,13.03
2018-03-24T11:14:46.362Z,13.00
2018-03-24T11:15:46.367Z,12.93
2018-03-24T11:16:46.354Z,12.86
2018-03-24T11:17:46.723Z,12.82
2018-03-24T11:18:46.338Z,12.77
2018-03-24T11:19:46.332Z,12.92
2018-03-24T11:20:46.339Z,12.97
2018-03-24T11:21:46.326Z,13.14
2018-03-24T11:22:46.338Z,13.10
2018-03-24T11:23:46.353Z,13.20
2018-03-24T11:24:46.309Z,13.36
2018-03-24T11:25:46.313Z,13.48
2018-03-24T11:26:46.298Z,13.51
2018-03-24T11:27:46.311Z,13.57
2018-03-24T11:28:46.307Z,13.64
2018-03-24T11:29:46.283Z,13.75
2018-03-24T11:30:46.265Z,13.78
2018-03-24T11:31:46.303Z,13.78
2018-03-24T11:32:46.252Z,13.84
2018-03-24T11:33:46.262Z,13.81
2018-03-24T11:34:46.244Z,13.85
2018-03-24T11:35:46.234Z,13.92
2018-03-24T11:36:46.582Z,13.92
2018-03-24T11:37:46.224Z,14.00
2018-03-24T11:38:46.219Z,14.02
2018-03-24T11:39:46.208Z,14.07
2018-03-24T11:40:46.219Z,14.14
2018-03-24T11:41:46.222Z,14.02
2018-03-24T11:42:46.244Z,13.71
2018-03-24T11:43:46.182Z,13.66
2018-03-24T11:44:46.178Z,13.46
2018-03-24T11:45:46.172Z,13.60
2018-03-24T11:46:46.182Z,13.67
2018-03-24T11:47:46.233Z,13.71
2018-03-24T11:48:46.161Z,13.75
2018-03-24T11:49:46.153Z,13.91
2018-03-24T11:50:46.154Z,13.87
2018-03-24T11:51:46.143Z,13.78
2018-03-24T11:52:46.145Z,13.91
2018-03-24T11:53:46.272Z,14.10
2018-03-24T11:54:46.116Z,14.20
2018-03-24T11:55:46.113Z,14.42
2018-03-24T11:56:46.123Z,14.52
2018-03-24T11:57:46.127Z,14.68
2018-03-24T11:58:46.109Z,14.81
2018-03-24T11:59:46.137Z,14.83
2018-03-24T12:00:46.110Z,14.99
2018-03-24T12:01:46.086Z,15.02
2018-03-24T12:02:46.120Z,15.19
2018-03-24T12:03:46.070Z,15.35
2018-03-24T12:04:46.067Z,15.38
2018-03-24T12:05:46.105Z,15.25
2018-03-24T12:06:46.069Z,15.21
2018-03-24T12:07:46.056Z,15.16
2018-03-24T12:08:46.051Z,15.11
2018-03-24T12:09:46.060Z,14.99
2018-03-24T12:10:46.042Z,14.95
2018-03-24T12:11:46.057Z,14.91
2018-03-24T12:12:46.033Z,14.94
2018-03-24T12:13:46.037Z,14.75
2018-03-24T12:14:46.038Z,14.73
2018-03-24T12:15:46.102Z,14.64
2018-03-24T12:16:46.024Z,14.72
2018-03-24T12:17:46.005Z,14.65
2018-03-24T12:18:46.013Z,14.61
2018-03-24T12:19:45.990Z,14.65
2018-03-24T12:20:45.991Z,14.62
2018-03-24T12:21:46.004Z,14.61
2018-03-24T12:22:45.986Z,14.72
2018-03-24T12:23:45.993Z,14.75
2018-03-24T12:24:45.973Z,14.80
2018-03-24T12:25:45.964Z,14.73
2018-03-24T12:26:46.007Z,14.77
2018-03-24T12:27:45.963Z,14.81
2018-03-24T12:28:45.947Z,14.81
2018-03-24T12:29:45.947Z,14.77
2018-03-24T12:30:45.937Z,14.72
2018-03-24T12:31:45.975Z,14.68
2018-03-24T12:32:45.957Z,14.68
2018-03-24T12:33:45.934Z,14.65
2018-03-24T12:34:45.929Z,14.73
2018-03-24T12:35:45.934Z,14.62
2018-03-24T12:36:45.957Z,14.61
2018-03-24T12:37:45.918Z,14.62
2018-03-24T12:38:45.906Z,14.62
2018-03-24T12:39:45.897Z,14.64
2018-03-24T12:40:45.879Z,14.64
2018-03-24T12:41:45.894Z,14.62
2018-03-24T12:42:45.901Z,14.65
2018-03-24T12:43:45.943Z,14.62
2018-03-24T12:44:45.853Z,14.65
2018-03-24T12:45:45.920Z,14.61
2018-03-24T12:46:45.852Z,14.61
2018-03-24T12:47:45.839Z,14.51
2018-03-24T12:48:45.837Z,14.50
2018-03-24T12:49:45.871Z,14.45
2018-03-24T12:50:45.821Z,14.37
2018-03-24T12:51:45.843Z,14.47
2018-03-24T12:52:45.807Z,14.39
2018-03-24T12:53:45.803Z,14.29
2018-03-24T12:54:45.821Z,14.36
2018-03-24T12:55:45.791Z,14.32
2018-03-24T12:56:46.145Z,14.29
2018-03-24T12:57:45.779Z,14.40
2018-03-24T12:58:45.771Z,14.42
2018-03-24T12:59:45.789Z,14.42
2018-03-24T13:00:45.783Z,14.40
2018-03-24T13:01:45.766Z,14.36
2018-03-24T13:02:45.784Z,14.45
2018-03-24T13:03:45.743Z,14.40
2018-03-24T13:04:45.750Z,14.45
2018-03-24T13:05:45.723Z,14.32
2018-03-24T13:06:45.766Z,14.29
2018-03-24T13:07:45.722Z,14.25
2018-03-24T13:08:45.709Z,14.22
2018-03-24T13:09:45.716Z,14.20
2018-03-24T13:10:45.707Z,14.18
2018-03-24T13:11:45.695Z,14.22
2018-03-24T13:12:45.707Z,14.17
2018-03-24T13:13:45.732Z,14.14
2018-03-24T13:14:45.670Z,14.03
2018-03-24T13:15:45.655Z,13.85
2018-03-24T13:16:45.658Z,13.82
2018-03-24T13:17:45.639Z,13.71
2018-03-24T13:18:45.636Z,13.77
2018-03-24T13:19:45.848Z,13.67
2018-03-24T13:20:45.633Z,13.67
2018-03-24T13:21:45.631Z,13.69
2018-03-24T13:22:45.630Z,13.57
2018-03-24T13:23:45.598Z,13.46
2018-03-24T13:24:45.610Z,13.51
2018-03-24T13:25:45.585Z,13.29
2018-03-24T13:26:45.579Z,13.10
2018-03-24T13:27:45.571Z,13.08
2018-03-24T13:28:45.581Z,13.08
2018-03-24T13:29:45.577Z,13.14
2018-03-24T13:30:45.594Z,13.15
2018-03-24T13:31:45.557Z,13.15